Time;durP1;ratioP1;P1;durP2;ratioP2;P2;SDS_P1;SDS_P2;PMS_P1;PMS_P2;Temp;Humidity;BMP_temperature;BMP_pressure;BME280_temperature;BME280_humidity;BME280_pressure;Samples;Min_cycle;Max_cycle;Signal;HPM_P1;HPM_P2
2022/11/26 00:00:34;;;;;;;11.55;6.82;;;;;;;;;;2114393;28;20048;-41
2022/11/26 00:01:35;;;;;;;11.30;6.45;;;;;;;;;;2114154;28;20385;-41
2022/11/26 00:02:37;;;;;;;9.75;6.05;;;;;;;;;;2114158;28;20051;-41
2022/11/26 00:03:38;;;;;;;18.33;7.13;;;;;;;;;;2114183;28;20178;-48
2022/11/26 00:04:39;;;;;;;15.77;8.23;;;;;;;;;;2120171;28;20035;-41
2022/11/26 00:05:42;;;;;;;12.25;7.35;;;;;;;;;;2122718;28;20176;-47
2022/11/26 00:06:43;;;;;;;;;;;;;;;;;;2122204;28;20085;-48
2022/11/26 00:07:47;;;;;;;12.48;6.13;;;;;;;;;;2114026;28;19919;-47
2022/11/26 00:08:48;;;;;;;9.55;6.85;;;;;;;;;;2113974;28;20047;-48
2022/11/26 00:09:49;;;;;;;11.95;7.55;;;;;;;;;;2113149;28;20062;-41
2022/11/26 00:10:51;;;;;;;15.35;7.55;;;;;;;;;;2113748;28;20047;-48
2022/11/26 00:11:52;;;;;;;10.80;7.22;;;;;;;;;;2114215;28;20047;-48
2022/11/26 00:12:54;;;;;;;9.77;6.65;;;;;;;;;;2113978;28;20492;-47
2022/11/26 00:13:55;;;;;;;10.68;6.95;;;;;;;;;;2114065;28;20047;-41
2022/11/26 00:14:57;;;;;;;11.38;7.13;;;;;;;;;;2114253;28;20056;-41
2022/11/26 00:15:58;;;;;;;12.07;7.10;;;;;;;;;;2114069;28;20069;-47
2022/11/26 00:16:59;;;;;;;14.02;7.95;;;;;;;;;;2114160;28;20104;-47
2022/11/26 00:18:01;;;;;;;12.93;8.20;;;;;;;;;;2114095;28;20043;-48
2022/11/26 00:19:01;;;;;;;13.10;7.95;;;;;;;;;;2114180;28;20052;-41
2022/11/26 00:20:03;;;;;;;12.30;7.68;;;;;;;;;;2114042;28;20476;-41
2022/11/26 00:21:05;;;;;;;12.50;7.75;;;;;;;;;;2114242;28;20047;-41
2022/11/26 00:22:06;;;;;;;;;;;;;;;;;;2114418;28;20454;-41
2022/11/26 00:23:12;;;;;;;13.25;7.00;;;;;;;;;;2114118;28;20019;-41
2022/11/26 00:24:22;;;;;;;11.55;6.55;;;;;;;;;;2114068;28;20044;-40
2022/11/26 00:25:26;;;;;;;9.90;6.75;;;;;;;;;;2114172;28;20051;-48
2022/11/26 00:26:28;;;;;;;10.13;6.95;;;;;;;;;;2114213;28;20070;-41
2022/11/26 00:27:28;;;;;;;10.20;6.63;;;;;;;;;;2114039;28;20047;-46
2022/11/26 00:28:31;;;;;;;10.13;6.90;;;;;;;;;;2113983;28;20087;-47
2022/11/26 00:29:32;;;;;;;10.70;6.45;;;;;;;;;;2114022;28;20468;-45
2022/11/26 00:30:33;;;;;;;10.50;6.90;;;;;;;;;;2114097;28;20052;-41
2022/11/26 00:31:34;;;;;;;9.68;6.90;;;;;;;;;;2113975;28;20051;-47
2022/11/26 00:32:35;;;;;;;9.57;5.85;;;;;;;;;;2113953;28;20113;-41
2022/11/26 00:33:37;;;;;;;9.95;6.85;;;;;;;;;;2113944;28;20052;-46
2022/11/26 00:34:38;;;;;;;10.77;6.75;;;;;;;;;;2114087;28;20043;-48
2022/11/26 00:35:40;;;;;;;11.02;6.43;;;;;;;;;;2114126;28;20056;-40
2022/11/26 00:36:41;;;;;;;13.77;7.05;;;;;;;;;;2114064;28;20044;-41
2022/11/26 00:37:44;;;;;;;12.00;6.95;;;;;;;;;;2113893;28;20067;-47
2022/11/26 00:38:46;;;;;;;9.65;6.25;;;;;;;;;;2113967;28;20059;-41
2022/11/26 00:39:47;;;;;;;9.88;6.15;;;;;;;;;;2113961;28;20500;-47
2022/11/26 00:40:49;;;;;;;10.90;6.68;;;;;;;;;;2114073;28;20044;-47
2022/11/26 00:41:51;;;;;;;14.55;7.00;;;;;;;;;;2114071;28;20048;-49
2022/11/26 00:42:52;;;;;;;;;;;;;;;;;;2114334;28;20040;-41
2022/11/26 00:43:54;;;;;;;9.95;5.25;;;;;;;;;;2114413;28;20018;-41
2022/11/26 00:44:55;;;;;;;11.77;7.07;;;;;;;;;;2115363;28;20046;-41
2022/11/26 00:46:14;;;;;;;10.77;6.28;;;;;;;;;;2115394;28;20379;-40
2022/11/26 00:47:15;;;;;;;12.18;6.13;;;;;;;;;;2115333;28;20054;-46
2022/11/26 00:48:18;;;;;;;9.13;6.07;;;;;;;;;;2115347;28;20051;-47
2022/11/26 00:49:19;;;;;;;10.55;6.15;;;;;;;;;;2115201;28;20400;-41
2022/11/26 00:50:22;;;;;;;11.32;7.50;;;;;;;;;;2115523;28;20054;-41
2022/11/26 00:51:24;;;;;;;12.95;6.13;;;;;;;;;;2115363;28;20487;-47
2022/11/26 00:52:27;;;;;;;14.45;7.88;;;;;;;;;;2115223;28;20116;-48
2022/11/26 00:53:29;;;;;;;12.02;6.97;;;;;;;;;;2115451;28;20060;-47
2022/11/26 00:54:29;;;;;;;11.80;6.65;;;;;;;;;;2115415;28;20055;-42
2022/11/26 00:55:32;;;;;;;11.67;6.87;;;;;;;;;;2115362;28;20087;-46
2022/11/26 00:56:34;;;;;;;9.57;5.85;;;;;;;;;;2115421;28;20047;-40
2022/11/26 00:57:38;;;;;;;13.23;6.75;;;;;;;;;;2115333;28;20419;-44
2022/11/26 00:58:39;;;;;;;8.03;5.80;;;;;;;;;;2115374;28;20044;-40
2022/11/26 00:59:40;;;;;;;12.52;6.60;;;;;;;;;;2115413;28;20048;-46
2022/11/26 01:00:41;;;;;;;13.40;7.03;;;;;;;;;;2115272;28;20118;-46
2022/11/26 01:01:42;;;;;;;13.10;7.22;;;;;;;;;;2115399;28;20082;-41
2022/11/26 01:02:44;;;;;;;10.67;6.20;;;;;;;;;;2115265;28;20134;-41
2022/11/26 01:03:45;;;;;;;10.60;6.15;;;;;;;;;;2115447;28;20044;-41
2022/11/26 01:04:47;;;;;;;11.10;6.35;;;;;;;;;;2115114;28;20067;-41
2022/11/26 01:05:49;;;;;;;10.60;6.10;;;;;;;;;;2115382;28;20054;-47
2022/11/26 01:06:50;;;;;;;10.93;6.20;;;;;;;;;;2115122;28;20040;-47
2022/11/26 01:07:52;;;;;;;13.67;8.03;;;;;;;;;;2115082;28;20040;-40
2022/11/26 01:08:53;;;;;;;12.25;6.28;;;;;;;;;;2115323;28;20280;-47
2022/11/26 01:09:54;;;;;;;12.98;6.95;;;;;;;;;;2115421;28;20051;-47
2022/11/26 01:10:55;;;;;;;12.32;6.00;;;;;;;;;;2115123;28;20044;-40
2022/11/26 01:11:56;;;;;;;9.68;5.97;;;;;;;;;;2115184;28;20398;-41
2022/11/26 01:12:57;;;;;;;10.93;6.57;;;;;;;;;;2115372;28;20263;-40
2022/11/26 01:13:58;;;;;;;9.60;6.57;;;;;;;;;;2115163;28;20164;-40
2022/11/26 01:14:59;;;;;;;10.88;6.30;;;;;;;;;;2115398;28;20054;-47
2022/11/26 01:16:01;;;;;;;12.18;7.32;;;;;;;;;;2115180;28;20097;-41
2022/11/26 01:17:02;;;;;;;;;;;;;;;;;;2115562;28;20047;-41
2022/11/26 01:18:09;;;;;;;10.85;7.28;;;;;;;;;;2115238;28;20541;-41
2022/11/26 01:19:11;;;;;;;13.15;7.43;;;;;;;;;;2115352;28;20052;-41
2022/11/26 01:20:20;;;;;;;12.52;6.97;;;;;;;;;;2115148;28;20285;-47
2022/11/26 01:21:27;;;;;;;14.13;7.90;;;;;;;;;;2115330;28;20085;-47
2022/11/26 01:22:28;;;;;;;11.55;7.65;;;;;;;;;;2115044;28;20102;-41
2022/11/26 01:23:29;;;;;;;15.50;8.40;;;;;;;;;;2115177;28;20047;-47
2022/11/26 01:24:30;;;;;;;14.93;8.38;;;;;;;;;;2115356;28;20054;-41
2022/11/26 01:25:31;;;;;;;11.77;6.90;;;;;;;;;;2115152;28;20043;-46
2022/11/26 01:26:33;;;;;;;11.98;7.68;;;;;;;;;;2115133;28;20444;-47
2022/11/26 01:27:34;;;;;;;14.50;9.32;;;;;;;;;;2114940;28;20108;-41
2022/11/26 01:28:35;;;;;;;15.65;8.90;;;;;;;;;;2115254;28;20044;-40
2022/11/26 01:29:36;;;;;;;12.95;8.00;;;;;;;;;;2115340;28;20126;-46
2022/11/26 01:30:37;;;;;;;11.63;7.50;;;;;;;;;;2115221;28;20054;-40
2022/11/26 01:31:38;;;;;;;11.52;7.70;;;;;;;;;;2115135;28;20040;-41
2022/11/26 01:32:39;;;;;;;14.00;8.77;;;;;;;;;;2115000;28;20051;-40
2022/11/26 01:33:40;;;;;;;13.37;8.43;;;;;;;;;;2115137;28;20128;-41
2022/11/26 01:34:41;;;;;;;13.40;8.13;;;;;;;;;;2115174;28;20049;-41
2022/11/26 01:35:43;;;;;;;13.63;8.63;;;;;;;;;;2115243;28;20071;-45
2022/11/26 05:56:58;;;;;;;13.59;7.32;;;;;;;;;;4258927;27;20774;-41
2022/11/26 05:58:01;;;;;;;12.75;7.00;;;;;;;;;;2129608;27;20458;-41
2022/11/26 05:59:02;;;;;;;13.20;7.37;;;;;;;;;;2130046;27;20051;-42
2022/11/26 06:00:03;;;;;;;10.77;5.95;;;;;;;;;;2129776;27;20054;-42
2022/11/26 06:01:06;;;;;;;11.73;6.93;;;;;;;;;;2129662;27;20070;-42
2022/11/26 06:02:07;;;;;;;12.82;7.50;;;;;;;;;;2129684;27;20055;-41
2022/11/26 06:03:08;;;;;;;12.23;6.50;;;;;;;;;;2129894;27;20402;-48
2022/11/26 06:04:09;;;;;;;9.98;5.60;;;;;;;;;;2122102;27;20623;-48
2022/11/26 06:05:10;;;;;;;16.17;7.40;;;;;;;;;;2121385;28;20070;-49
2022/11/26 06:06:11;;;;;;;13.88;6.85;;;;;;;;;;2121084;28;20065;-48
2022/11/26 06:07:12;;;;;;;12.63;6.78;;;;;;;;;;2121010;28;20039;-47
2022/11/26 06:08:13;;;;;;;10.15;6.35;;;;;;;;;;2121090;28;20050;-51
2022/11/26 06:09:14;;;;;;;13.63;6.87;;;;;;;;;;2121043;28;20050;-48
2022/11/26 06:10:15;;;;;;;15.23;7.13;;;;;;;;;;2121067;28;20047;-50
2022/11/26 06:11:17;;;;;;;13.38;6.25;;;;;;;;;;2121742;28;20052;-42
2022/11/26 06:12:18;;;;;;;15.00;7.32;;;;;;;;;;2121257;28;20056;-49
2022/11/26 06:13:19;;;;;;;14.02;6.90;;;;;;;;;;2121061;28;20051;-49
2022/11/26 06:14:20;;;;;;;15.05;7.65;;;;;;;;;;2121022;28;20048;-49
2022/11/26 06:15:22;;;;;;;14.45;7.13;;;;;;;;;;2120857;28;20487;-48
2022/11/26 06:16:22;;;;;;;14.82;8.20;;;;;;;;;;2121212;28;20290;-48
2022/11/26 06:17:24;;;;;;;16.90;8.05;;;;;;;;;;2120992;28;20479;-48
2022/11/26 06:18:25;;;;;;;14.45;7.75;;;;;;;;;;2120983;28;20051;-49
2022/11/26 06:19:26;;;;;;;13.47;7.53;;;;;;;;;;2121324;28;20116;-49
2022/11/26 06:20:27;;;;;;;14.70;7.38;;;;;;;;;;2120945;27;20058;-49
2022/11/26 06:21:28;;;;;;;14.85;7.82;;;;;;;;;;2128686;27;20483;-47
2022/11/26 06:22:29;;;;;;;14.55;8.02;;;;;;;;;;2129431;27;20050;-48
2022/11/26 06:23:31;;;;;;;15.13;6.97;;;;;;;;;;2130094;27;20043;-42
2022/11/26 06:24:32;;;;;;;15.18;7.95;;;;;;;;;;2129889;27;20676;-48
2022/11/26 06:25:33;;;;;;;13.93;8.05;;;;;;;;;;2129740;27;20058;-42
2022/11/26 06:26:34;;;;;;;14.82;8.65;;;;;;;;;;2129453;27;20441;-41
2022/11/26 06:27:36;;;;;;;18.75;8.60;;;;;;;;;;2129422;27;20042;-41
2022/11/26 06:28:38;;;;;;;15.80;8.70;;;;;;;;;;2129859;27;20043;-41
2022/11/26 06:29:39;;;;;;;13.25;7.43;;;;;;;;;;2129642;27;20069;-48
2022/11/26 06:30:42;;;;;;;15.25;9.00;;;;;;;;;;2129283;27;20491;-49
2022/11/26 06:31:43;;;;;;;14.30;7.63;;;;;;;;;;2129476;27;20043;-48
2022/11/26 06:32:44;;;;;;;15.85;8.20;;;;;;;;;;2129639;27;20047;-41
2022/11/26 06:33:46;;;;;;;12.43;7.13;;;;;;;;;;2129430;27;20043;-41
2022/11/26 06:34:46;;;;;;;13.98;8.93;;;;;;;;;;2129470;27;20054;-48
2022/11/26 06:35:57;;;;;;;11.93;7.90;;;;;;;;;;2129725;27;20049;-49
2022/11/26 06:36:58;;;;;;;17.15;8.77;;;;;;;;;;2129467;27;20051;-50
2022/11/26 06:37:59;;;;;;;13.27;7.73;;;;;;;;;;2129354;27;20053;-47
2022/11/26 06:39:00;;;;;;;14.65;7.88;;;;;;;;;;2129792;27;20039;-42
2022/11/26 06:40:01;;;;;;;14.30;8.83;;;;;;;;;;2129488;27;20088;-41
2022/11/26 06:41:03;;;;;;;14.40;8.40;;;;;;;;;;2129380;27;20096;-41
2022/11/26 06:42:05;;;;;;;13.43;8.38;;;;;;;;;;2129648;27;20043;-51
2022/11/26 06:43:07;;;;;;;15.13;8.50;;;;;;;;;;2129995;27;20149;-42
2022/11/26 06:44:08;;;;;;;;;;;;;;;;;;2129836;27;20054;-42
2022/11/26 06:45:09;;;;;;;11.43;6.20;;;;;;;;;;2129257;27;20022;-42
2022/11/26 06:46:10;;;;;;;17.90;9.27;;;;;;;;;;2129616;27;20039;-49
2022/11/26 06:47:12;;;;;;;21.38;10.70;;;;;;;;;;2129448;27;20059;-48
2022/11/26 06:48:13;;;;;;;16.85;9.35;;;;;;;;;;2129684;27;20100;-49
2022/11/26 06:49:14;;;;;;;13.95;8.60;;;;;;;;;;2129238;27;20506;-48
2022/11/26 06:50:16;;;;;;;14.35;8.00;;;;;;;;;;2129246;27;20043;-47
2022/11/26 06:51:19;;;;;;;11.32;7.40;;;;;;;;;;2129475;27;20174;-45
2022/11/26 06:52:20;;;;;;;14.32;8.10;;;;;;;;;;2129755;27;20050;-42
2022/11/26 06:53:21;;;;;;;15.35;8.80;;;;;;;;;;2129439;27;20050;-42
2022/11/26 06:54:22;;;;;;;13.02;7.97;;;;;;;;;;2129578;27;20111;-47
2022/11/26 06:55:23;;;;;;;14.88;8.75;;;;;;;;;;2129153;27;20043;-48
2022/11/26 06:56:24;;;;;;;11.77;5.80;;;;;;;;;;2126822;27;20487;-47
2022/11/26 06:57:25;;;;;;;13.23;7.75;;;;;;;;;;2123526;28;20051;-48
2022/11/26 06:58:27;;;;;;;12.83;7.10;;;;;;;;;;2123645;28;20093;-48
2022/11/26 06:59:28;;;;;;;;;;;;;;;;;;2124297;28;20047;-42
2022/11/26 07:00:29;;;;;;;15.15;8.98;;;;;;;;;;2123348;28;20007;-40
2022/11/26 07:01:30;;;;;;;15.93;8.90;;;;;;;;;;2123452;28;20043;-41
2022/11/26 07:02:31;;;;;;;12.25;6.45;;;;;;;;;;2123656;28;20066;-41
2022/11/26 07:03:32;;;;;;;15.75;8.60;;;;;;;;;;2123719;28;20043;-41
2022/11/26 07:04:34;;;;;;;16.40;7.68;;;;;;;;;;2123542;28;20051;-42
2022/11/26 07:05:35;;;;;;;12.52;7.30;;;;;;;;;;2123615;28;20039;-42
2022/11/26 07:06:36;;;;;;;11.93;6.97;;;;;;;;;;2123730;28;20058;-42
2022/11/26 07:07:37;;;;;;;15.23;7.72;;;;;;;;;;2123946;28;20066;-49
2022/11/26 07:08:39;;;;;;;17.90;7.72;;;;;;;;;;2123796;28;20043;-42
2022/11/26 07:09:40;;;;;;;17.27;8.50;;;;;;;;;;2123951;28;20047;-41
2022/11/26 07:10:41;;;;;;;17.00;8.32;;;;;;;;;;2123414;28;20491;-42
2022/11/26 07:11:49;;;;;;;13.80;7.55;;;;;;;;;;2123649;28;20054;-41
2022/11/26 07:12:50;;;;;;;12.60;7.35;;;;;;;;;;2123586;28;20442;-48
2022/11/26 07:13:52;;;;;;;14.10;7.95;;;;;;;;;;2123820;28;20175;-48
2022/11/26 07:14:53;;;;;;;13.60;7.60;;;;;;;;;;2123266;28;20043;-48
2022/11/26 07:15:54;;;;;;;15.63;7.67;;;;;;;;;;2123381;28;20133;-52
2022/11/26 07:16:55;;;;;;;14.48;8.05;;;;;;;;;;2123452;28;20445;-48
2022/11/26 07:17:57;;;;;;;13.00;7.60;;;;;;;;;;2123948;28;20055;-42
2022/11/26 07:18:58;;;;;;;12.75;7.78;;;;;;;;;;2123338;28;20419;-42
2022/11/26 07:20:04;;;;;;;14.02;7.20;;;;;;;;;;2123587;28;20054;-42
2022/11/26 07:21:06;;;;;;;14.88;8.23;;;;;;;;;;2123472;28;20047;-42
2022/11/26 07:22:07;;;;;;;12.60;6.95;;;;;;;;;;2123443;28;20154;-41
2022/11/26 07:23:08;;;;;;;12.70;7.50;;;;;;;;;;2123561;28;20435;-50
2022/11/26 07:24:09;;;;;;;14.88;7.38;;;;;;;;;;2123719;28;20043;-41
2022/11/26 07:25:11;;;;;;;12.40;6.90;;;;;;;;;;2123339;28;20050;-41
2022/11/26 07:26:14;;;;;;;15.85;8.25;;;;;;;;;;2123455;28;20101;-42
2022/11/26 07:27:15;;;;;;;16.42;8.93;;;;;;;;;;2123458;28;20047;-42
2022/11/26 07:28:16;;;;;;;16.20;7.73;;;;;;;;;;2123332;28;20406;-42
2022/11/26 07:29:18;;;;;;;17.45;8.85;;;;;;;;;;2123501;28;20058;-42
2022/11/26 07:30:19;;;;;;;17.10;8.57;;;;;;;;;;2123364;28;20047;-41
2022/11/26 07:31:21;;;;;;;17.10;8.98;;;;;;;;;;2123363;28;20043;-42
2022/11/26 07:32:22;;;;;;;15.98;8.50;;;;;;;;;;2123487;28;20487;-41
2022/11/26 07:33:23;;;;;;;20.77;8.93;;;;;;;;;;2123721;28;20051;-42
2022/11/26 07:34:24;;;;;;;15.10;7.80;;;;;;;;;;2123350;28;20096;-41
2022/11/26 07:35:25;;;;;;;14.97;7.73;;;;;;;;;;2123143;28;20047;-42
2022/11/26 07:36:27;;;;;;;16.10;8.38;;;;;;;;;;2123602;28;20057;-49
2022/11/26 07:37:29;;;;;;;;;;;;;;;;;;2123939;28;20047;-49
2022/11/26 07:38:30;;;;;;;14.98;8.75;;;;;;;;;;2123546;28;19919;-49
2022/11/26 07:39:31;;;;;;;20.08;9.68;;;;;;;;;;2123257;28;20047;-48
2022/11/26 07:40:32;;;;;;;17.17;10.15;;;;;;;;;;2123351;28;20051;-48
2022/11/26 07:41:33;;;;;;;17.45;9.05;;;;;;;;;;2123318;28;20043;-49
2022/11/26 07:42:34;;;;;;;17.20;10.13;;;;;;;;;;2123623;28;20039;-48
2022/11/26 07:43:35;;;;;;;19.43;9.47;;;;;;;;;;2123693;28;20051;-48
2022/11/26 07:44:37;;;;;;;20.67;10.18;;;;;;;;;;2123603;28;20107;-48
2022/11/26 07:45:38;;;;;;;19.15;10.57;;;;;;;;;;2123262;28;20043;-48
2022/11/26 07:46:40;;;;;;;21.00;11.60;;;;;;;;;;2123567;28;20039;-41
2022/11/26 07:47:41;;;;;;;24.88;12.07;;;;;;;;;;2123253;28;20507;-41
2022/11/26 07:48:42;;;;;;;24.75;12.15;;;;;;;;;;2123537;28;20126;-48
2022/11/26 07:49:43;;;;;;;22.73;12.85;;;;;;;;;;2123347;28;20050;-41
2022/11/26 07:50:44;;;;;;;23.80;13.13;;;;;;;;;;2123153;28;20046;-41
2022/11/26 07:51:45;;;;;;;30.00;16.45;;;;;;;;;;2114820;28;20585;-41
2022/11/26 07:52:46;;;;;;;26.38;15.80;;;;;;;;;;2114903;28;20047;-41
2022/11/26 07:53:47;;;;;;;24.77;13.93;;;;;;;;;;2115039;28;20043;-41
2022/11/26 07:54:49;;;;;;;28.08;14.75;;;;;;;;;;2117280;28;20056;-41
2022/11/26 07:55:49;;;;;;;32.05;16.30;;;;;;;;;;2123081;28;20492;-41
2022/11/26 07:56:51;;;;;;;27.45;15.48;;;;;;;;;;2123595;28;20078;-48
2022/11/26 07:57:52;;;;;;;19.77;11.88;;;;;;;;;;2123270;28;20073;-47
2022/11/26 07:58:53;;;;;;;21.85;13.38;;;;;;;;;;2123460;28;20082;-46
2022/11/26 07:59:54;;;;;;;23.73;13.52;;;;;;;;;;2123872;28;20100;-41
2022/11/26 08:00:56;;;;;;;26.17;13.88;;;;;;;;;;2123467;28;20047;-41
2022/11/26 08:01:57;;;;;;;22.08;12.77;;;;;;;;;;2123025;28;20498;-48
2022/11/26 08:02:58;;;;;;;30.23;13.77;;;;;;;;;;2123495;28;20146;-41
2022/11/26 08:03:59;;;;;;;25.50;13.45;;;;;;;;;;2123023;28;20407;-41
2022/11/26 08:05:00;;;;;;;22.65;12.18;;;;;;;;;;2123375;28;20047;-41
2022/11/26 08:06:04;;;;;;;28.35;14.95;;;;;;;;;;2123303;28;20407;-41
2022/11/26 08:07:05;;;;;;;27.50;14.70;;;;;;;;;;2123472;28;20054;-41
2022/11/26 08:08:06;;;;;;;23.08;14.35;;;;;;;;;;2122740;27;20039;-41
2022/11/26 08:09:07;;;;;;;29.77;16.48;;;;;;;;;;2122638;28;20082;-41
2022/11/26 08:10:09;;;;;;;28.00;16.05;;;;;;;;;;2123376;28;20074;-47
2022/11/26 08:11:14;;;;;;;30.48;16.20;;;;;;;;;;2123069;28;20043;-47
2022/11/26 08:12:15;;;;;;;28.30;14.55;;;;;;;;;;2123462;28;20088;-41
2022/11/26 08:13:16;;;;;;;29.83;15.60;;;;;;;;;;2123083;28;20493;-41
2022/11/26 08:14:17;;;;;;;23.65;12.63;;;;;;;;;;2123178;28;20054;-41
2022/11/26 08:15:19;;;;;;;22.95;13.57;;;;;;;;;;2122944;28;20086;-41
2022/11/26 08:16:19;;;;;;;23.80;13.35;;;;;;;;;;2123030;28;20074;-41
2022/11/26 08:17:21;;;;;;;22.73;13.27;;;;;;;;;;2123514;28;20046;-41
2022/11/26 08:18:22;;;;;;;24.05;13.32;;;;;;;;;;2123070;28;20069;-41
2022/11/26 08:19:23;;;;;;;25.03;13.37;;;;;;;;;;2123271;28;20055;-46
2022/11/26 08:20:24;;;;;;;26.00;12.80;;;;;;;;;;2123447;28;20100;-41
2022/11/26 08:21:30;;;;;;;18.02;10.05;;;;;;;;;;2123090;28;20118;-41
2022/11/26 08:22:30;;;;;;;22.33;11.13;;;;;;;;;;2123106;28;20088;-41
2022/11/26 08:23:32;;;;;;;19.58;11.60;;;;;;;;;;2123312;28;20039;-46
2022/11/26 08:24:34;;;;;;;20.90;11.07;;;;;;;;;;2122965;28;20043;-46
2022/11/26 08:25:35;;;;;;;20.33;10.82;;;;;;;;;;2123049;28;20524;-47
2022/11/26 08:26:42;;;;;;;18.20;9.77;;;;;;;;;;2123131;28;20059;-41
2022/11/26 08:27:45;;;;;;;17.15;9.48;;;;;;;;;;2122994;28;20511;-41
2022/11/26 08:28:46;;;;;;;11.53;7.27;;;;;;;;;;2123127;28;20050;-41
2022/11/26 08:29:47;;;;;;;17.90;9.85;;;;;;;;;;2123112;28;20047;-47
2022/11/26 08:30:49;;;;;;;20.08;9.30;;;;;;;;;;2123000;28;20051;-47
2022/11/26 08:31:50;;;;;;;19.08;9.35;;;;;;;;;;2123152;28;20095;-46
2022/11/26 08:32:51;;;;;;;19.77;10.75;;;;;;;;;;2122944;28;20043;-47
2022/11/26 08:33:55;;;;;;;17.17;9.18;;;;;;;;;;2123026;28;20392;-47
2022/11/26 08:34:56;;;;;;;17.60;10.65;;;;;;;;;;2123060;28;20054;-40
2022/11/26 08:35:57;;;;;;;17.98;9.73;;;;;;;;;;2122879;28;20047;-40
2022/11/26 08:37:08;;;;;;;18.75;10.07;;;;;;;;;;2123264;28;20134;-46
2022/11/26 08:38:09;;;;;;;20.05;11.07;;;;;;;;;;2122847;28;20403;-47
2022/11/26 08:39:11;;;;;;;19.93;10.63;;;;;;;;;;2123153;28;20067;-46
2022/11/26 08:40:13;;;;;;;15.02;9.55;;;;;;;;;;2122719;28;20462;-47
2022/11/26 08:41:15;;;;;;;20.08;11.05;;;;;;;;;;2123107;28;20099;-47
2022/11/26 08:42:15;;;;;;;20.92;12.05;;;;;;;;;;2122916;28;20051;-47
2022/11/26 08:43:17;;;;;;;17.23;10.23;;;;;;;;;;2123124;28;20517;-41
2022/11/26 08:44:17;;;;;;;21.30;12.13;;;;;;;;;;2123132;28;20051;-40
2022/11/26 08:45:19;;;;;;;25.10;13.32;;;;;;;;;;2122988;28;20062;-47
2022/11/26 08:46:21;;;;;;;21.40;12.30;;;;;;;;;;2122935;28;20043;-47
2022/11/26 08:47:22;;;;;;;19.90;12.20;;;;;;;;;;2119396;28;20071;-47
2022/11/26 08:48:24;;;;;;;28.25;13.48;;;;;;;;;;2114561;28;20108;-47
2022/11/26 08:49:31;;;;;;;22.10;12.13;;;;;;;;;;2114353;28;20488;-47
2022/11/26 08:50:33;;;;;;;20.42;12.48;;;;;;;;;;2114353;28;20140;-47
2022/11/26 08:51:34;;;;;;;20.98;11.95;;;;;;;;;;2114581;28;20100;-41
2022/11/26 08:52:35;;;;;;;24.45;12.68;;;;;;;;;;2114662;28;20054;-40
2022/11/26 08:53:36;;;;;;;22.87;12.50;;;;;;;;;;2114479;28;20094;-47
2022/11/26 08:54:37;;;;;;;21.95;13.35;;;;;;;;;;2114328;28;20488;-46
2022/11/26 08:55:45;;;;;;;23.83;12.25;;;;;;;;;;2114187;28;20047;-47
2022/11/26 08:57:01;;;;;;;24.15;14.80;;;;;;;;;;2114404;28;20051;-46
2022/11/26 08:58:02;;;;;;;25.33;15.00;;;;;;;;;;2114347;28;20055;-47
2022/11/26 08:59:03;;;;;;;28.40;16.07;;;;;;;;;;2114314;28;20518;-46
2022/11/26 09:00:05;;;;;;;29.65;15.50;;;;;;;;;;2114495;28;20055;-46
2022/11/26 09:01:08;;;;;;;24.90;14.73;;;;;;;;;;2114044;28;20062;-47
2022/11/26 09:02:10;;;;;;;24.48;14.68;;;;;;;;;;2114551;28;20069;-40
2022/11/26 09:03:17;;;;;;;24.73;14.82;;;;;;;;;;2114643;28;20043;-40
2022/11/26 09:04:19;;;;;;;26.13;16.20;;;;;;;;;;2114321;28;20075;-40
2022/11/26 09:05:19;;;;;;;27.45;15.63;;;;;;;;;;2114193;28;20043;-40
2022/11/26 09:06:22;;;;;;;22.48;14.73;;;;;;;;;;2114329;28;20127;-40
2022/11/26 09:07:23;;;;;;;27.35;15.52;;;;;;;;;;2114557;28;20514;-40
2022/11/26 09:08:26;;;;;;;23.77;13.73;;;;;;;;;;2114262;28;20048;-40
2022/11/26 09:09:28;;;;;;;21.15;13.15;;;;;;;;;;2114575;28;20288;-47
2022/11/26 09:10:29;;;;;;;26.65;15.10;;;;;;;;;;2114096;28;20079;-46
2022/11/26 09:11:30;;;;;;;25.75;18.23;;;;;;;;;;2114189;28;20043;-46
2022/11/26 09:12:31;;;;;;;30.75;19.95;;;;;;;;;;2114192;28;20039;-46
2022/11/26 09:13:32;;;;;;;30.02;19.33;;;;;;;;;;2114132;28;20496;-46
2022/11/26 09:14:35;;;;;;;25.90;15.27;;;;;;;;;;2114443;28;20083;-46
2022/11/26 09:15:36;;;;;;;22.73;15.93;;;;;;;;;;2114098;28;20052;-47
2022/11/26 09:16:37;;;;;;;31.07;19.33;;;;;;;;;;2114556;28;20145;-40
2022/11/26 09:17:39;;;;;;;26.98;18.17;;;;;;;;;;2114342;28;20048;-41
2022/11/26 09:18:40;;;;;;;29.75;20.00;;;;;;;;;;2114138;28;20047;-40
2022/11/26 09:19:41;;;;;;;29.95;18.13;;;;;;;;;;2113930;28;20048;-40
2022/11/26 09:20:42;;;;;;;26.08;16.23;;;;;;;;;;2114047;28;20036;-40
2022/11/26 09:21:44;;;;;;;23.08;15.00;;;;;;;;;;2114089;28;20476;-40
2022/11/26 09:22:45;;;;;;;26.67;15.90;;;;;;;;;;2114212;28;20051;-40
2022/11/26 09:23:46;;;;;;;23.27;15.30;;;;;;;;;;2114503;28;20039;-40
2022/11/26 09:24:47;;;;;;;25.05;15.50;;;;;;;;;;2114016;28;20292;-40
2022/11/26 09:25:48;;;;;;;24.60;14.68;;;;;;;;;;2114145;28;20039;-40
2022/11/26 09:26:49;;;;;;;24.63;15.83;;;;;;;;;;2114320;28;20051;-46
2022/11/26 09:27:50;;;;;;;22.90;15.23;;;;;;;;;;2114328;28;20043;-40
2022/11/26 09:28:51;;;;;;;29.25;18.35;;;;;;;;;;2114456;28;20052;-46
2022/11/26 09:29:52;;;;;;;27.17;16.90;;;;;;;;;;2114181;28;20130;-40
2022/11/26 09:30:56;;;;;;;26.40;16.33;;;;;;;;;;2114014;28;20047;-40
2022/11/26 09:31:57;;;;;;;25.48;16.95;;;;;;;;;;2114242;28;20111;-47
2022/11/26 09:33:19;;;;;;;29.15;16.83;;;;;;;;;;2113798;28;20059;-48
2022/11/26 09:34:19;;;;;;;26.17;16.63;;;;;;;;;;2114145;28;20198;-47
2022/11/26 09:35:21;;;;;;;26.27;17.07;;;;;;;;;;2113983;28;20086;-47
2022/11/26 09:36:22;;;;;;;28.13;16.65;;;;;;;;;;2113953;28;20503;-47
2022/11/26 09:37:23;;;;;;;25.67;16.13;;;;;;;;;;2114406;28;20055;-49
2022/11/26 09:38:24;;;;;;;20.83;12.73;;;;;;;;;;2114329;28;20053;-41
2022/11/26 09:39:25;;;;;;;27.45;16.98;;;;;;;;;;2113965;28;20050;-41
2022/11/26 09:40:33;;;;;;;30.52;18.13;;;;;;;;;;2114196;28;20051;-41
2022/11/26 09:41:38;;;;;;;27.98;15.73;;;;;;;;;;2114189;28;20048;-41
2022/11/26 09:42:48;;;;;;;24.80;15.10;;;;;;;;;;2114514;28;20043;-47
2022/11/26 09:43:57;;;;;;;20.95;12.98;;;;;;;;;;2113783;28;20047;-47
2022/11/26 09:45:04;;;;;;;16.23;10.32;;;;;;;;;;2113947;28;20051;-47
2022/11/26 09:46:06;;;;;;;20.52;13.45;;;;;;;;;;2114339;28;20043;-48
2022/11/26 09:47:10;;;;;;;24.55;13.13;;;;;;;;;;2114074;28;20154;-48
2022/11/26 09:48:15;;;;;;;19.83;12.55;;;;;;;;;;2114470;28;20043;-41
2022/11/26 09:49:17;;;;;;;19.33;12.40;;;;;;;;;;2114041;28;20048;-41
2022/11/26 09:50:22;;;;;;;22.77;12.68;;;;;;;;;;2113923;28;20048;-41
2022/11/26 09:51:23;;;;;;;24.17;14.10;;;;;;;;;;2114173;28;20101;-41
2022/11/26 09:52:25;;;;;;;21.97;13.03;;;;;;;;;;2114001;28;20529;-41
2022/11/26 09:53:30;;;;;;;18.67;12.43;;;;;;;;;;2114138;28;20051;-41
2022/11/26 09:54:31;;;;;;;21.02;12.57;;;;;;;;;;2113630;28;20047;-41
2022/11/26 09:55:33;;;;;;;19.83;12.30;;;;;;;;;;2113990;28;20040;-47
2022/11/26 09:56:33;;;;;;;;;;;;;;;;;;2114826;28;20043;-41
2022/11/26 09:57:39;;;;;;;19.45;10.93;;;;;;;;;;2114241;28;20410;-41
2022/11/26 09:58:44;;;;;;;20.05;12.13;;;;;;;;;;2114157;28;20642;-41
2022/11/26 09:59:46;;;;;;;22.38;12.90;;;;;;;;;;2114137;28;20084;-41
2022/11/26 10:00:48;;;;;;;21.48;13.13;;;;;;;;;;2114291;28;20044;-41
2022/11/26 10:01:49;;;;;;;;;;;;;;;;;;2114524;28;20514;-41
2022/11/26 10:02:51;;;;;;;18.00;10.52;;;;;;;;;;2114165;28;19920;-41
2022/11/26 10:03:52;;;;;;;;;;;;;;;;;;2114443;28;20040;-41
2022/11/26 10:04:54;;;;;;;15.82;10.05;;;;;;;;;;2113839;28;20372;-41
2022/11/26 10:05:57;;;;;;;19.77;11.48;;;;;;;;;;2114177;28;20096;-41
2022/11/26 10:07:00;;;;;;;20.00;11.20;;;;;;;;;;2114297;28;20524;-47
2022/11/26 10:08:06;;;;;;;16.40;10.40;;;;;;;;;;2114072;28;20043;-47
2022/11/26 10:09:14;;;;;;;14.82;9.98;;;;;;;;;;2114099;28;20054;-47
2022/11/26 10:10:19;;;;;;;14.48;10.05;;;;;;;;;;2114007;28;20050;-48
2022/11/26 10:11:24;;;;;;;18.25;11.65;;;;;;;;;;2114099;28;20059;-47
2022/11/26 10:12:31;;;;;;;19.75;12.40;;;;;;;;;;2113856;28;20488;-47
2022/11/26 10:13:37;;;;;;;18.60;12.00;;;;;;;;;;2114050;28;20044;-46
2022/11/26 10:14:49;;;;;;;18.35;11.48;;;;;;;;;;2113877;28;20048;-48
2022/11/26 10:15:56;;;;;;;23.35;12.85;;;;;;;;;;2113938;28;20054;-47
2022/11/26 10:17:06;;;;;;;18.08;11.48;;;;;;;;;;2114159;28;20055;-47
2022/11/26 10:18:14;;;;;;;18.13;12.02;;;;;;;;;;2114389;28;20062;-48
2022/11/26 10:19:19;;;;;;;20.25;13.15;;;;;;;;;;2113840;28;20054;-47
2022/11/26 10:20:27;;;;;;;20.40;11.77;;;;;;;;;;2113734;28;20400;-47
2022/11/26 10:21:32;;;;;;;16.73;10.85;;;;;;;;;;2113922;28;20048;-47
2022/11/26 10:22:57;;;;;;;15.82;10.75;;;;;;;;;;2113975;28;20082;-47
2022/11/26 10:24:01;;;;;;;16.75;10.38;;;;;;;;;;2113779;28;20549;-47
2022/11/26 10:25:03;;;;;;;18.10;11.57;;;;;;;;;;2113940;28;20051;-47
2022/11/26 10:26:06;;;;;;;18.25;10.95;;;;;;;;;;2113967;28;20051;-41
2022/11/26 10:27:11;;;;;;;17.70;10.38;;;;;;;;;;2114125;28;20283;-48